sensor_id;sensor_type;location;lat;lon;timestamp;temperature;humidity
14000;DHT22;7075;53.574;10.054;2022-08-03T00:00:05;23.50;99.90
14000;DHT22;7075;53.574;10.054;2022-08-03T00:02:31;23.50;99.90
14000;DHT22;7075;53.574;10.054;2022-08-03T00:04:57;23.50;99.90
14000;DHT22;7075;53.574;10.054;2022-08-03T00:07:22;23.40;99.90
14000;DHT22;7075;53.574;10.054;2022-08-03T00:09:48;23.30;99.90
14000;DHT22;7075;53.574;10.054;2022-08-03T00:12:14;23.30;99.90
14000;DHT22;7075;53.574;10.054;2022-08-03T00:14:40;23.30;99.90
14000;DHT22;7075;53.574;10.054;2022-08-03T00:17:06;23.30;99.90
14000;DHT22;7075;53.574;10.054;2022-08-03T00:19:31;23.30;99.90
14000;DHT22;7075;53.574;10.054;2022-08-03T00:21:57;23.30;99.90
14000;DHT22;7075;53.574;10.054;2022-08-03T00:24:22;23.20;99.90
14000;DHT22;7075;53.574;10.054;2022-08-03T00:26:48;23.20;99.90
14000;DHT22;7075;53.574;10.054;2022-08-03T00:29:13;23.20;99.90
14000;DHT22;7075;53.574;10.054;2022-08-03T00:31:39;23.20;99.90
14000;DHT22;7075;53.574;10.054;2022-08-03T00:34:05;23.10;99.90
14000;DHT22;7075;53.574;10.054;2022-08-03T00:36:30;23.10;99.90
14000;DHT22;7075;53.574;10.054;2022-08-03T00:38:56;23.10;99.90
14000;DHT22;7075;53.574;10.054;2022-08-03T00:41:22;23.10;99.90
14000;DHT22;7075;53.574;10.054;2022-08-03T00:43:48;23.00;99.90
14000;DHT22;7075;53.574;10.054;2022-08-03T00:46:13;23.00;99.90
14000;DHT22;7075;53.574;10.054;2022-08-03T00:48:39;23.00;99.90
14000;DHT22;7075;53.574;10.054;2022-08-03T00:51:04;23.00;99.90
14000;DHT22;7075;53.574;10.054;2022-08-03T00:53:31;23.00;99.90
14000;DHT22;7075;53.574;10.054;2022-08-03T00:55:57;23.00;99.90
14000;DHT22;7075;53.574;10.054;2022-08-03T00:58:23;22.90;99.90
14000;DHT22;7075;53.574;10.054;2022-08-03T01:00:49;22.90;99.90
14000;DHT22;7075;53.574;10.054;2022-08-03T01:03:15;22.90;99.90
14000;DHT22;7075;53.574;10.054;2022-08-03T01:06:23;22.80;99.90
14000;DHT22;7075;53.574;10.054;2022-08-03T01:09:00;22.70;99.90
14000;DHT22;7075;53.574;10.054;2022-08-03T01:11:48;22.60;99.90
14000;DHT22;7075;53.574;10.054;2022-08-03T01:14:33;22.60;99.90
14000;DHT22;7075;53.574;10.054;2022-08-03T01:17:13;22.60;99.90
14000;DHT22;7075;53.574;10.054;2022-08-03T01:19:59;22.50;99.90
14000;DHT22;7075;53.574;10.054;2022-08-03T01:30:52;22.50;99.90
14000;DHT22;7075;53.574;10.054;2022-08-03T01:33:27;22.50;99.90
14000;DHT22;7075;53.574;10.054;2022-08-03T01:36:03;22.40;99.90
14000;DHT22;7075;53.574;10.054;2022-08-03T01:38:35;22.40;99.90
14000;DHT22;7075;53.574;10.054;2022-08-03T01:41:17;22.40;99.90
14000;DHT22;7075;53.574;10.054;2022-08-03T01:43:46;22.40;99.90
14000;DHT22;7075;53.574;10.054;2022-08-03T01:46:15;22.40;99.90
14000;DHT22;7075;53.574;10.054;2022-08-03T01:48:42;22.30;99.90
14000;DHT22;7075;53.574;10.054;2022-08-03T01:51:09;22.20;99.90
14000;DHT22;7075;53.574;10.054;2022-08-03T01:53:37;22.10;99.90
14000;DHT22;7075;53.574;10.054;2022-08-03T01:56:08;22.10;99.90
14000;DHT22;7075;53.574;10.054;2022-08-03T01:58:35;22.10;99.90
14000;DHT22;7075;53.574;10.054;2022-08-03T02:01:02;22.10;99.90
14000;DHT22;7075;53.574;10.054;2022-08-03T02:03:31;22.10;99.90
14000;DHT22;7075;53.574;10.054;2022-08-03T02:05:59;22.10;99.90
14000;DHT22;7075;53.574;10.054;2022-08-03T02:08:26;22.10;99.90
14000;DHT22;7075;53.574;10.054;2022-08-03T02:10:56;22.00;99.90
14000;DHT22;7075;53.574;10.054;2022-08-03T02:13:23;22.00;99.90
14000;DHT22;7075;53.574;10.054;2022-08-03T02:15:51;21.90;99.90
14000;DHT22;7075;53.574;10.054;2022-08-03T02:18:18;21.90;99.90
14000;DHT22;7075;53.574;10.054;2022-08-03T02:20:45;21.90;99.90
14000;DHT22;7075;53.574;10.054;2022-08-03T02:23:13;21.80;99.90
14000;DHT22;7075;53.574;10.054;2022-08-03T02:25:43;21.80;99.90
14000;DHT22;7075;53.574;10.054;2022-08-03T02:28:13;21.80;99.90
14000;DHT22;7075;53.574;10.054;2022-08-03T02:30:42;21.80;99.90
14000;DHT22;7075;53.574;10.054;2022-08-03T02:33:20;21.70;99.90
14000;DHT22;7075;53.574;10.054;2022-08-03T02:35:47;21.70;99.90
14000;DHT22;7075;53.574;10.054;2022-08-03T02:38:16;21.70;99.90
14000;DHT22;7075;53.574;10.054;2022-08-03T02:40:43;21.70;99.90
14000;DHT22;7075;53.574;10.054;2022-08-03T02:43:11;21.70;99.90
14000;DHT22;7075;53.574;10.054;2022-08-03T02:45:43;21.60;99.90
14000;DHT22;7075;53.574;10.054;2022-08-03T02:48:10;21.60;99.90
14000;DHT22;7075;53.574;10.054;2022-08-03T02:50:38;21.60;99.90
14000;DHT22;7075;53.574;10.054;2022-08-03T02:53:05;21.60;99.90
14000;DHT22;7075;53.574;10.054;2022-08-03T02:55:33;21.50;99.90
14000;DHT22;7075;53.574;10.054;2022-08-03T02:58:00;21.50;99.90
14000;DHT22;7075;53.574;10.054;2022-08-03T03:00:27;21.50;99.90
14000;DHT22;7075;53.574;10.054;2022-08-03T03:02:57;21.50;99.90
14000;DHT22;7075;53.574;10.054;2022-08-03T03:05:23;21.50;99.90
14000;DHT22;7075;53.574;10.054;2022-08-03T03:07:49;21.40;99.90
14000;DHT22;7075;53.574;10.054;2022-08-03T03:10:14;21.40;99.90
14000;DHT22;7075;53.574;10.054;2022-08-03T03:12:42;21.30;99.90
14000;DHT22;7075;53.574;10.054;2022-08-03T03:15:08;21.30;99.90
14000;DHT22;7075;53.574;10.054;2022-08-03T03:17:36;21.30;99.90
14000;DHT22;7075;53.574;10.054;2022-08-03T03:20:03;21.20;99.90
14000;DHT22;7075;53.574;10.054;2022-08-03T03:22:30;21.20;99.90
14000;DHT22;7075;53.574;10.054;2022-08-03T03:24:57;21.20;99.90
14000;DHT22;7075;53.574;10.054;2022-08-03T03:27:23;21.10;99.90
14000;DHT22;7075;53.574;10.054;2022-08-03T03:29:50;21.10;99.90
14000;DHT22;7075;53.574;10.054;2022-08-03T03:32:15;21.10;99.90
14000;DHT22;7075;53.574;10.054;2022-08-03T03:34:41;21.10;99.90
14000;DHT22;7075;53.574;10.054;2022-08-03T03:37:07;21.10;99.90
14000;DHT22;7075;53.574;10.054;2022-08-03T03:39:33;21.10;99.90
14000;DHT22;7075;53.574;10.054;2022-08-03T03:42:01;21.20;99.90
14000;DHT22;7075;53.574;10.054;2022-08-03T03:44:28;21.20;99.90
14000;DHT22;7075;53.574;10.054;2022-08-03T03:46:56;21.20;99.90
14000;DHT22;7075;53.574;10.054;2022-08-03T03:49:22;21.10;99.90
14000;DHT22;7075;53.574;10.054;2022-08-03T03:51:51;21.10;99.90
14000;DHT22;7075;53.574;10.054;2022-08-03T03:54:16;21.10;99.90
14000;DHT22;7075;53.574;10.054;2022-08-03T03:56:42;21.10;99.90
14000;DHT22;7075;53.574;10.054;2022-08-03T03:59:07;21.10;99.90
14000;DHT22;7075;53.574;10.054;2022-08-03T04:01:33;21.10;99.90
14000;DHT22;7075;53.574;10.054;2022-08-03T04:03:59;21.10;99.90
14000;DHT22;7075;53.574;10.054;2022-08-03T04:06:44;21.00;99.90
14000;DHT22;7075;53.574;10.054;2022-08-03T04:09:29;21.00;99.90
14000;DHT22;7075;53.574;10.054;2022-08-03T04:12:15;21.00;99.90
14000;DHT22;7075;53.574;10.054;2022-08-03T04:14:42;21.00;99.90
14000;DHT22;7075;53.574;10.054;2022-08-03T04:17:12;21.00;99.90
14000;DHT22;7075;53.574;10.054;2022-08-03T04:19:45;21.00;99.90
14000;DHT22;7075;53.574;10.054;2022-08-03T04:22:17;21.00;99.90
14000;DHT22;7075;53.574;10.054;2022-08-03T04:24:47;21.00;99.90
14000;DHT22;7075;53.574;10.054;2022-08-03T04:27:17;20.90;99.90
14000;DHT22;7075;53.574;10.054;2022-08-03T04:29:47;20.90;99.90
14000;DHT22;7075;53.574;10.054;2022-08-03T04:32:13;21.00;99.90
14000;DHT22;7075;53.574;10.054;2022-08-03T04:34:39;21.00;99.90
14000;DHT22;7075;53.574;10.054;2022-08-03T04:37:13;21.10;99.90
14000;DHT22;7075;53.574;10.054;2022-08-03T04:39:43;21.10;99.90
14000;DHT22;7075;53.574;10.054;2022-08-03T04:42:10;21.10;99.90
14000;DHT22;7075;53.574;10.054;2022-08-03T04:44:39;21.00;99.90
14000;DHT22;7075;53.574;10.054;2022-08-03T04:47:06;21.00;99.90
14000;DHT22;7075;53.574;10.054;2022-08-03T04:49:32;21.00;99.90
14000;DHT22;7075;53.574;10.054;2022-08-03T04:52:00;21.00;99.90
14000;DHT22;7075;53.574;10.054;2022-08-03T04:54:25;21.00;99.90
14000;DHT22;7075;53.574;10.054;2022-08-03T04:56:51;21.10;99.90
14000;DHT22;7075;53.574;10.054;2022-08-03T04:59:16;21.10;99.90
14000;DHT22;7075;53.574;10.054;2022-08-03T05:01:42;21.10;99.90
14000;DHT22;7075;53.574;10.054;2022-08-03T05:04:08;21.20;99.90
14000;DHT22;7075;53.574;10.054;2022-08-03T05:06:34;21.20;99.90
14000;DHT22;7075;53.574;10.054;2022-08-03T05:09:00;21.20;99.90
14000;DHT22;7075;53.574;10.054;2022-08-03T05:11:25;21.20;99.90
14000;DHT22;7075;53.574;10.054;2022-08-03T05:13:51;21.30;99.90
14000;DHT22;7075;53.574;10.054;2022-08-03T05:16:16;21.30;99.90
14000;DHT22;7075;53.574;10.054;2022-08-03T05:18:42;21.30;99.90
14000;DHT22;7075;53.574;10.054;2022-08-03T05:21:09;21.30;99.90
14000;DHT22;7075;53.574;10.054;2022-08-03T05:23:35;21.30;99.90
14000;DHT22;7075;53.574;10.054;2022-08-03T05:26:00;21.30;99.90
14000;DHT22;7075;53.574;10.054;2022-08-03T05:28:26;21.20;99.90
14000;DHT22;7075;53.574;10.054;2022-08-03T05:30:52;21.30;99.90
14000;DHT22;7075;53.574;10.054;2022-08-03T05:33:17;21.30;99.90
14000;DHT22;7075;53.574;10.054;2022-08-03T05:35:43;21.40;99.90
14000;DHT22;7075;53.574;10.054;2022-08-03T05:38:08;21.40;99.90
14000;DHT22;7075;53.574;10.054;2022-08-03T05:40:34;21.30;99.90
14000;DHT22;7075;53.574;10.054;2022-08-03T05:43:00;21.30;99.90
14000;DHT22;7075;53.574;10.054;2022-08-03T05:45:25;21.30;99.90
14000;DHT22;7075;53.574;10.054;2022-08-03T05:47:51;21.30;99.90
14000;DHT22;7075;53.574;10.054;2022-08-03T05:50:18;21.30;99.90
14000;DHT22;7075;53.574;10.054;2022-08-03T05:52:44;21.30;99.90
14000;DHT22;7075;53.574;10.054;2022-08-03T05:55:11;21.40;99.90
14000;DHT22;7075;53.574;10.054;2022-08-03T05:57:38;21.40;99.90
14000;DHT22;7075;53.574;10.054;2022-08-03T06:00:08;21.50;99.90
14000;DHT22;7075;53.574;10.054;2022-08-03T06:02:34;21.50;99.90
14000;DHT22;7075;53.574;10.054;2022-08-03T06:05:00;21.50;99.90
14000;DHT22;7075;53.574;10.054;2022-08-03T06:07:26;21.50;99.90
14000;DHT22;7075;53.574;10.054;2022-08-03T06:09:51;21.50;99.90
14000;DHT22;7075;53.574;10.054;2022-08-03T06:12:17;21.60;99.90
14000;DHT22;7075;53.574;10.054;2022-08-03T06:14:43;21.70;99.90
14000;DHT22;7075;53.574;10.054;2022-08-03T06:17:08;21.70;99.90
14000;DHT22;7075;53.574;10.054;2022-08-03T06:19:34;21.80;99.90
14000;DHT22;7075;53.574;10.054;2022-08-03T06:21:59;21.80;99.90
14000;DHT22;7075;53.574;10.054;2022-08-03T06:24:25;21.90;99.90
14000;DHT22;7075;53.574;10.054;2022-08-03T06:26:51;21.90;99.90
14000;DHT22;7075;53.574;10.054;2022-08-03T06:29:16;21.90;99.90
14000;DHT22;7075;53.574;10.054;2022-08-03T06:31:42;22.00;99.90
14000;DHT22;7075;53.574;10.054;2022-08-03T06:34:07;22.10;99.90
14000;DHT22;7075;53.574;10.054;2022-08-03T06:36:33;22.10;99.90
14000;DHT22;7075;53.574;10.054;2022-08-03T06:38:59;22.10;99.90
14000;DHT22;7075;53.574;10.054;2022-08-03T06:41:25;22.10;99.90
14000;DHT22;7075;53.574;10.054;2022-08-03T06:43:51;22.20;99.90
14000;DHT22;7075;53.574;10.054;2022-08-03T06:46:17;22.20;99.90
14000;DHT22;7075;53.574;10.054;2022-08-03T06:48:42;22.20;99.90
14000;DHT22;7075;53.574;10.054;2022-08-03T06:51:08;22.30;99.90
14000;DHT22;7075;53.574;10.054;2022-08-03T06:53:34;22.40;99.90
14000;DHT22;7075;53.574;10.054;2022-08-03T06:56:00;22.40;99.90
14000;DHT22;7075;53.574;10.054;2022-08-03T06:58:26;22.50;99.90
14000;DHT22;7075;53.574;10.054;2022-08-03T07:00:51;22.60;99.90
14000;DHT22;7075;53.574;10.054;2022-08-03T07:03:17;22.70;99.90
14000;DHT22;7075;53.574;10.054;2022-08-03T07:05:43;22.80;99.90
14000;DHT22;7075;53.574;10.054;2022-08-03T07:08:10;22.80;99.90
14000;DHT22;7075;53.574;10.054;2022-08-03T07:10:36;22.90;99.90
14000;DHT22;7075;53.574;10.054;2022-08-03T07:13:02;23.00;99.90
14000;DHT22;7075;53.574;10.054;2022-08-03T07:15:28;23.10;99.90
14000;DHT22;7075;53.574;10.054;2022-08-03T07:17:53;23.10;99.90
14000;DHT22;7075;53.574;10.054;2022-08-03T07:20:19;23.20;99.90
14000;DHT22;7075;53.574;10.054;2022-08-03T07:22:45;23.30;99.90
14000;DHT22;7075;53.574;10.054;2022-08-03T07:25:10;23.30;99.90
14000;DHT22;7075;53.574;10.054;2022-08-03T07:27:36;23.40;99.90
14000;DHT22;7075;53.574;10.054;2022-08-03T07:30:04;23.40;99.90
14000;DHT22;7075;53.574;10.054;2022-08-03T07:32:30;23.50;99.90
14000;DHT22;7075;53.574;10.054;2022-08-03T07:34:56;23.60;99.90
14000;DHT22;7075;53.574;10.054;2022-08-03T07:37:22;23.60;99.90
14000;DHT22;7075;53.574;10.054;2022-08-03T07:39:47;23.60;99.90
14000;DHT22;7075;53.574;10.054;2022-08-03T07:42:13;23.70;99.90
14000;DHT22;7075;53.574;10.054;2022-08-03T07:44:38;23.70;99.90
14000;DHT22;7075;53.574;10.054;2022-08-03T07:47:04;23.80;99.90
14000;DHT22;7075;53.574;10.054;2022-08-03T07:49:30;23.90;99.90
14000;DHT22;7075;53.574;10.054;2022-08-03T07:51:55;24.00;99.90
14000;DHT22;7075;53.574;10.054;2022-08-03T07:54:40;24.10;99.90
14000;DHT22;7075;53.574;10.054;2022-08-03T07:57:05;24.20;99.90
14000;DHT22;7075;53.574;10.054;2022-08-03T07:59:31;24.20;99.90
14000;DHT22;7075;53.574;10.054;2022-08-03T08:01:57;24.20;99.90
14000;DHT22;7075;53.574;10.054;2022-08-03T08:04:22;24.20;99.90
14000;DHT22;7075;53.574;10.054;2022-08-03T08:06:48;24.20;99.90
14000;DHT22;7075;53.574;10.054;2022-08-03T08:09:13;24.40;99.90
14000;DHT22;7075;53.574;10.054;2022-08-03T08:11:39;24.50;99.90
14000;DHT22;7075;53.574;10.054;2022-08-03T08:14:05;24.70;99.90
14000;DHT22;7075;53.574;10.054;2022-08-03T08:16:31;24.80;99.90
14000;DHT22;7075;53.574;10.054;2022-08-03T08:18:57;25.00;99.90
14000;DHT22;7075;53.574;10.054;2022-08-03T08:21:23;25.00;99.90
14000;DHT22;7075;53.574;10.054;2022-08-03T08:23:48;25.10;99.90
14000;DHT22;7075;53.574;10.054;2022-08-03T08:26:14;25.20;99.90
14000;DHT22;7075;53.574;10.054;2022-08-03T08:28:40;25.30;99.90
14000;DHT22;7075;53.574;10.054;2022-08-03T08:31:06;25.30;99.90
14000;DHT22;7075;53.574;10.054;2022-08-03T08:33:32;25.40;99.90
14000;DHT22;7075;53.574;10.054;2022-08-03T08:35:59;25.50;99.90
14000;DHT22;7075;53.574;10.054;2022-08-03T08:38:25;25.60;99.90
14000;DHT22;7075;53.574;10.054;2022-08-03T08:40:53;25.60;99.90
14000;DHT22;7075;53.574;10.054;2022-08-03T08:43:19;25.60;99.90
14000;DHT22;7075;53.574;10.054;2022-08-03T08:45:46;25.70;99.90
14000;DHT22;7075;53.574;10.054;2022-08-03T08:48:13;25.70;99.90
14000;DHT22;7075;53.574;10.054;2022-08-03T08:50:39;25.80;99.90
14000;DHT22;7075;53.574;10.054;2022-08-03T08:53:06;25.90;99.90
14000;DHT22;7075;53.574;10.054;2022-08-03T08:55:35;25.90;99.90
14000;DHT22;7075;53.574;10.054;2022-08-03T08:58:05;26.00;99.90
14000;DHT22;7075;53.574;10.054;2022-08-03T09:00:30;26.00;99.90
14000;DHT22;7075;53.574;10.054;2022-08-03T09:02:56;25.90;99.90
14000;DHT22;7075;53.574;10.054;2022-08-03T09:05:22;25.90;99.90
14000;DHT22;7075;53.574;10.054;2022-08-03T09:07:48;25.90;99.90
14000;DHT22;7075;53.574;10.054;2022-08-03T09:10:16;26.00;99.90
14000;DHT22;7075;53.574;10.054;2022-08-03T09:12:48;26.10;99.90
14000;DHT22;7075;53.574;10.054;2022-08-03T09:17:43;26.10;99.90
14000;DHT22;7075;53.574;10.054;2022-08-03T09:20:09;26.20;99.90
14000;DHT22;7075;53.574;10.054;2022-08-03T09:23:00;26.20;99.90
14000;DHT22;7075;53.574;10.054;2022-08-03T09:25:32;26.30;99.90
14000;DHT22;7075;53.574;10.054;2022-08-03T09:30:35;26.30;99.90
14000;DHT22;7075;53.574;10.054;2022-08-03T09:33:09;26.30;99.90
14000;DHT22;7075;53.574;10.054;2022-08-03T09:35:42;26.40;99.90
14000;DHT22;7075;53.574;10.054;2022-08-03T09:38:26;26.40;99.90
14000;DHT22;7075;53.574;10.054;2022-08-03T09:40:53;26.40;99.90
14000;DHT22;7075;53.574;10.054;2022-08-03T09:43:19;26.40;99.90
14000;DHT22;7075;53.574;10.054;2022-08-03T09:45:46;26.50;99.90
14000;DHT22;7075;53.574;10.054;2022-08-03T09:48:26;26.50;99.90
14000;DHT22;7075;53.574;10.054;2022-08-03T09:50:56;26.60;99.90
14000;DHT22;7075;53.574;10.054;2022-08-03T09:53:22;26.60;99.90
14000;DHT22;7075;53.574;10.054;2022-08-03T09:56:02;26.60;99.90
14000;DHT22;7075;53.574;10.054;2022-08-03T09:58:29;26.70;99.90
14000;DHT22;7075;53.574;10.054;2022-08-03T10:03:23;26.80;99.90
14000;DHT22;7075;53.574;10.054;2022-08-03T10:05:49;26.90;99.90
14000;DHT22;7075;53.574;10.054;2022-08-03T10:08:17;27.00;99.90
14000;DHT22;7075;53.574;10.054;2022-08-03T10:10:44;27.00;99.90
14000;DHT22;7075;53.574;10.054;2022-08-03T10:13:12;27.00;99.90
14000;DHT22;7075;53.574;10.054;2022-08-03T10:15:39;27.00;99.90
14000;DHT22;7075;53.574;10.054;2022-08-03T10:18:05;27.10;99.90
14000;DHT22;7075;53.574;10.054;2022-08-03T10:21:07;27.20;99.90
14000;DHT22;7075;53.574;10.054;2022-08-03T10:23:35;27.20;99.90
14000;DHT22;7075;53.574;10.054;2022-08-03T10:26:03;27.30;99.90
14000;DHT22;7075;53.574;10.054;2022-08-03T10:28:34;27.30;99.90
14000;DHT22;7075;53.574;10.054;2022-08-03T10:31:02;27.20;99.90
14000;DHT22;7075;53.574;10.054;2022-08-03T10:33:31;27.30;99.90
14000;DHT22;7075;53.574;10.054;2022-08-03T10:35:59;27.30;99.90
14000;DHT22;7075;53.574;10.054;2022-08-03T10:38:39;27.30;99.90
14000;DHT22;7075;53.574;10.054;2022-08-03T10:41:05;27.20;99.90
14000;DHT22;7075;53.574;10.054;2022-08-03T10:43:37;27.30;99.90
14000;DHT22;7075;53.574;10.054;2022-08-03T10:46:07;27.40;99.90
14000;DHT22;7075;53.574;10.054;2022-08-03T10:48:33;27.50;99.90
14000;DHT22;7075;53.574;10.054;2022-08-03T10:51:00;27.70;99.90
14000;DHT22;7075;53.574;10.054;2022-08-03T10:53:40;27.80;99.90
14000;DHT22;7075;53.574;10.054;2022-08-03T10:59:16;27.80;99.90
14000;DHT22;7075;53.574;10.054;2022-08-03T11:01:53;27.90;99.90
14000;DHT22;7075;53.574;10.054;2022-08-03T11:04:20;27.90;99.90
14000;DHT22;7075;53.574;10.054;2022-08-03T11:06:46;27.80;99.90
14000;DHT22;7075;53.574;10.054;2022-08-03T11:09:13;27.80;99.90
14000;DHT22;7075;53.574;10.054;2022-08-03T11:11:41;27.80;99.90
14000;DHT22;7075;53.574;10.054;2022-08-03T11:14:15;27.90;99.90
14000;DHT22;7075;53.574;10.054;2022-08-03T11:17:05;27.90;99.90
14000;DHT22;7075;53.574;10.054;2022-08-03T11:19:51;27.90;99.90
14000;DHT22;7075;53.574;10.054;2022-08-03T11:22:17;27.80;99.90
14000;DHT22;7075;53.574;10.054;2022-08-03T11:27:28;27.90;99.90
14000;DHT22;7075;53.574;10.054;2022-08-03T11:29:55;28.10;99.90
14000;DHT22;7075;53.574;10.054;2022-08-03T11:35:19;28.30;99.90
14000;DHT22;7075;53.574;10.054;2022-08-03T11:40:54;28.60;99.90
14000;DHT22;7075;53.574;10.054;2022-08-03T11:46:03;29.10;99.90
14000;DHT22;7075;53.574;10.054;2022-08-03T11:51:06;29.40;99.90
14000;DHT22;7075;53.574;10.054;2022-08-03T11:53:32;29.40;99.90
14000;DHT22;7075;53.574;10.054;2022-08-03T11:55:59;29.50;99.90
14000;DHT22;7075;53.574;10.054;2022-08-03T11:58:25;29.70;99.90
14000;DHT22;7075;53.574;10.054;2022-08-03T12:00:51;29.80;99.90
14000;DHT22;7075;53.574;10.054;2022-08-03T12:03:18;29.90;99.90
14000;DHT22;7075;53.574;10.054;2022-08-03T12:05:52;29.90;99.90
14000;DHT22;7075;53.574;10.054;2022-08-03T12:10:55;30.20;99.90
14000;DHT22;7075;53.574;10.054;2022-08-03T12:13:22;30.20;99.90
14000;DHT22;7075;53.574;10.054;2022-08-03T12:15:53;30.10;99.90
14000;DHT22;7075;53.574;10.054;2022-08-03T12:18:20;30.10;99.90
14000;DHT22;7075;53.574;10.054;2022-08-03T12:20:48;29.70;99.90
14000;DHT22;7075;53.574;10.054;2022-08-03T12:23:14;29.80;99.90
14000;DHT22;7075;53.574;10.054;2022-08-03T12:25:41;29.90;99.90
14000;DHT22;7075;53.574;10.054;2022-08-03T12:28:14;30.00;99.90
14000;DHT22;7075;53.574;10.054;2022-08-03T12:30:42;30.20;99.90
14000;DHT22;7075;53.574;10.054;2022-08-03T12:33:20;30.40;99.90
14000;DHT22;7075;53.574;10.054;2022-08-03T12:38:30;30.90;99.90
14000;DHT22;7075;53.574;10.054;2022-08-03T12:40:58;31.00;99.90
14000;DHT22;7075;53.574;10.054;2022-08-03T12:43:24;31.20;99.90
14000;DHT22;7075;53.574;10.054;2022-08-03T12:45:50;31.10;99.90
14000;DHT22;7075;53.574;10.054;2022-08-03T12:48:15;31.00;99.90
14000;DHT22;7075;53.574;10.054;2022-08-03T12:50:41;31.20;99.90
14000;DHT22;7075;53.574;10.054;2022-08-03T12:53:08;31.40;99.90
14000;DHT22;7075;53.574;10.054;2022-08-03T12:55:35;31.30;99.90
14000;DHT22;7075;53.574;10.054;2022-08-03T12:58:05;31.40;99.90
14000;DHT22;7075;53.574;10.054;2022-08-03T13:00:31;31.60;99.90
14000;DHT22;7075;53.574;10.054;2022-08-03T13:03:02;31.80;99.90
14000;DHT22;7075;53.574;10.054;2022-08-03T13:05:28;31.80;99.90
14000;DHT22;7075;53.574;10.054;2022-08-03T13:07:54;31.60;99.90
14000;DHT22;7075;53.574;10.054;2022-08-03T13:10:31;31.80;99.90
14000;DHT22;7075;53.574;10.054;2022-08-03T13:12:57;31.70;99.90
14000;DHT22;7075;53.574;10.054;2022-08-03T13:15:25;31.50;99.90
14000;DHT22;7075;53.574;10.054;2022-08-03T13:17:53;31.70;99.90
14000;DHT22;7075;53.574;10.054;2022-08-03T13:20:19;31.80;99.90
14000;DHT22;7075;53.574;10.054;2022-08-03T13:22:48;32.00;99.90
14000;DHT22;7075;53.574;10.054;2022-08-03T13:25:14;32.30;99.90
14000;DHT22;7075;53.574;10.054;2022-08-03T13:27:40;32.20;99.90
14000;DHT22;7075;53.574;10.054;2022-08-03T13:30:07;32.10;99.90
14000;DHT22;7075;53.574;10.054;2022-08-03T13:32:33;32.30;99.90
14000;DHT22;7075;53.574;10.054;2022-08-03T13:34:59;32.40;99.90
14000;DHT22;7075;53.574;10.054;2022-08-03T13:37:27;32.50;99.90
14000;DHT22;7075;53.574;10.054;2022-08-03T13:39:53;32.50;99.90
14000;DHT22;7075;53.574;10.054;2022-08-03T13:42:18;32.50;99.90
14000;DHT22;7075;53.574;10.054;2022-08-03T13:44:44;32.50;99.90
14000;DHT22;7075;53.574;10.054;2022-08-03T13:47:10;32.60;99.90
14000;DHT22;7075;53.574;10.054;2022-08-03T13:49:36;32.70;99.90
14000;DHT22;7075;53.574;10.054;2022-08-03T13:52:02;32.60;99.90
14000;DHT22;7075;53.574;10.054;2022-08-03T13:54:31;32.80;99.90
14000;DHT22;7075;53.574;10.054;2022-08-03T13:56:58;33.10;99.90
14000;DHT22;7075;53.574;10.054;2022-08-03T13:59:24;33.30;99.90
14000;DHT22;7075;53.574;10.054;2022-08-03T14:01:52;33.40;99.90
14000;DHT22;7075;53.574;10.054;2022-08-03T14:04:18;33.30;99.90
14000;DHT22;7075;53.574;10.054;2022-08-03T14:06:44;33.50;99.90
14000;DHT22;7075;53.574;10.054;2022-08-03T14:09:13;33.60;99.90
14000;DHT22;7075;53.574;10.054;2022-08-03T14:11:40;33.60;99.90
14000;DHT22;7075;53.574;10.054;2022-08-03T14:14:06;33.50;99.90
14000;DHT22;7075;53.574;10.054;2022-08-03T14:16:31;33.50;99.90
14000;DHT22;7075;53.574;10.054;2022-08-03T14:18:57;33.40;99.90
14000;DHT22;7075;53.574;10.054;2022-08-03T14:21:22;33.60;99.90
14000;DHT22;7075;53.574;10.054;2022-08-03T14:23:49;33.80;99.90
14000;DHT22;7075;53.574;10.054;2022-08-03T14:26:15;33.90;99.90
14000;DHT22;7075;53.574;10.054;2022-08-03T14:28:43;33.80;99.90
14000;DHT22;7075;53.574;10.054;2022-08-03T14:31:09;34.00;99.90
14000;DHT22;7075;53.574;10.054;2022-08-03T14:33:34;34.20;99.90
14000;DHT22;7075;53.574;10.054;2022-08-03T14:36:00;34.30;99.90
14000;DHT22;7075;53.574;10.054;2022-08-03T14:38:26;34.40;99.90
14000;DHT22;7075;53.574;10.054;2022-08-03T14:40:51;34.70;99.90
14000;DHT22;7075;53.574;10.054;2022-08-03T14:43:17;34.90;99.90
14000;DHT22;7075;53.574;10.054;2022-08-03T14:45:44;34.70;99.90
14000;DHT22;7075;53.574;10.054;2022-08-03T14:48:10;34.40;99.90
14000;DHT22;7075;53.574;10.054;2022-08-03T14:50:37;34.20;99.90
14000;DHT22;7075;53.574;10.054;2022-08-03T14:53:02;34.40;99.90
14000;DHT22;7075;53.574;10.054;2022-08-03T14:55:28;34.50;99.90
14000;DHT22;7075;53.574;10.054;2022-08-03T14:57:54;34.40;99.90
14000;DHT22;7075;53.574;10.054;2022-08-03T15:00:19;34.20;99.90
14000;DHT22;7075;53.574;10.054;2022-08-03T15:02:45;34.40;99.90
14000;DHT22;7075;53.574;10.054;2022-08-03T15:05:11;34.40;99.90
14000;DHT22;7075;53.574;10.054;2022-08-03T15:07:37;33.90;99.90
14000;DHT22;7075;53.574;10.054;2022-08-03T15:10:03;33.90;99.90
14000;DHT22;7075;53.574;10.054;2022-08-03T15:12:29;34.40;99.90
14000;DHT22;7075;53.574;10.054;2022-08-03T15:14:55;34.30;99.90
14000;DHT22;7075;53.574;10.054;2022-08-03T15:17:20;34.30;99.90
14000;DHT22;7075;53.574;10.054;2022-08-03T15:19:46;34.40;99.90
14000;DHT22;7075;53.574;10.054;2022-08-03T15:22:12;34.70;99.90
14000;DHT22;7075;53.574;10.054;2022-08-03T15:24:40;34.70;99.90
14000;DHT22;7075;53.574;10.054;2022-08-03T15:27:06;34.90;99.90
14000;DHT22;7075;53.574;10.054;2022-08-03T15:29:32;35.00;99.90
14000;DHT22;7075;53.574;10.054;2022-08-03T15:31:57;35.10;99.90
14000;DHT22;7075;53.574;10.054;2022-08-03T15:34:23;35.30;99.90
14000;DHT22;7075;53.574;10.054;2022-08-03T15:36:48;35.50;99.90
14000;DHT22;7075;53.574;10.054;2022-08-03T15:39:14;35.70;99.90
14000;DHT22;7075;53.574;10.054;2022-08-03T15:41:40;35.70;99.90
14000;DHT22;7075;53.574;10.054;2022-08-03T15:44:05;35.80;99.90
14000;DHT22;7075;53.574;10.054;2022-08-03T15:46:31;35.60;99.90
14000;DHT22;7075;53.574;10.054;2022-08-03T15:48:57;34.90;99.90
14000;DHT22;7075;53.574;10.054;2022-08-03T15:51:22;34.20;99.90
14000;DHT22;7075;53.574;10.054;2022-08-03T15:53:48;33.90;99.90
14000;DHT22;7075;53.574;10.054;2022-08-03T15:56:13;33.80;99.90
14000;DHT22;7075;53.574;10.054;2022-08-03T15:58:39;33.90;99.90
14000;DHT22;7075;53.574;10.054;2022-08-03T16:01:05;34.20;99.90
14000;DHT22;7075;53.574;10.054;2022-08-03T16:03:32;34.00;99.90
14000;DHT22;7075;53.574;10.054;2022-08-03T16:06:02;34.20;99.90
14000;DHT22;7075;53.574;10.054;2022-08-03T16:08:28;34.40;99.90
14000;DHT22;7075;53.574;10.054;2022-08-03T16:10:54;34.50;99.90